createdAt,value
2022-08-09T00:02:00.527Z,18.90
2022-08-09T00:06:19.506Z,18.90
2022-08-09T00:08:33.269Z,18.80
2022-08-09T00:12:04.084Z,18.80
2022-08-09T00:15:06.275Z,18.80
2022-08-09T00:18:14.813Z,18.70
2022-08-09T00:21:19.958Z,18.70
2022-08-09T00:24:31.937Z,18.70
2022-08-09T00:27:40.154Z,18.70
2022-08-09T00:30:48.405Z,18.60
2022-08-09T00:33:54.389Z,18.60
2022-08-09T00:36:59.395Z,18.60
2022-08-09T00:40:14.088Z,18.60
2022-08-09T00:44:10.960Z,18.50
2022-08-09T00:46:55.772Z,18.50
2022-08-09T00:50:01.981Z,18.50
2022-08-09T00:53:10.494Z,18.50
2022-08-09T00:56:19.393Z,18.40
2022-08-09T00:59:40.680Z,18.40
2022-08-09T01:02:52.239Z,18.40
2022-08-09T01:06:17.376Z,18.40
2022-08-09T01:09:36.778Z,18.30
2022-08-09T01:12:50.735Z,18.30
2022-08-09T01:16:00.169Z,18.30
2022-08-09T01:19:40.147Z,18.30
2022-08-09T01:24:00.628Z,18.20
2022-08-09T01:27:08.570Z,18.20
2022-08-09T01:30:28.576Z,18.20
2022-08-09T01:33:43.202Z,18.20
2022-08-09T01:36:50.811Z,18.10
2022-08-09T01:39:59.425Z,18.10
2022-08-09T01:43:09.176Z,18.10
2022-08-09T01:46:18.407Z,18.10
2022-08-09T01:49:39.213Z,18.10
2022-08-09T01:52:46.339Z,18.00
2022-08-09T01:55:58.215Z,18.00
2022-08-09T01:59:16.178Z,18.00
2022-08-09T02:02:23.333Z,18.00
2022-08-09T02:05:53.487Z,18.00
2022-08-09T02:09:02.304Z,17.90
2022-08-09T02:12:10.463Z,17.90
2022-08-09T02:15:23.288Z,17.90
2022-08-09T02:18:35.272Z,17.90
2022-08-09T02:21:44.284Z,17.90
2022-08-09T02:24:53.417Z,17.90
2022-08-09T02:28:03.691Z,17.80
2022-08-09T02:31:17.985Z,17.80
2022-08-09T02:34:40.961Z,17.80
2022-08-09T02:38:00.513Z,17.80
2022-08-09T02:41:11.812Z,17.80
2022-08-09T02:44:30.124Z,17.70
2022-08-09T02:47:57.420Z,17.70
2022-08-09T02:51:05.208Z,17.70
2022-08-09T02:54:13.962Z,17.60
2022-08-09T02:57:23.106Z,17.60
2022-08-09T03:00:30.000Z,17.60
2022-08-09T03:04:17.539Z,17.60
2022-08-09T03:07:14.132Z,17.50
2022-08-09T03:10:20.303Z,17.50
2022-08-09T03:13:26.695Z,17.50
2022-08-09T03:16:50.527Z,17.50
2022-08-09T03:20:05.228Z,17.40
2022-08-09T03:23:24.484Z,17.40
2022-08-09T03:26:32.018Z,17.40
2022-08-09T03:29:56.927Z,17.40
2022-08-09T03:33:05.585Z,17.40
2022-08-09T03:36:21.066Z,17.30
2022-08-09T03:39:37.633Z,17.30
2022-08-09T03:42:44.505Z,17.30
2022-08-09T03:46:04.969Z,17.30
2022-08-09T03:49:17.503Z,17.20
2022-08-09T03:52:28.282Z,17.20
2022-08-09T03:55:36.057Z,17.20
2022-08-09T03:58:46.060Z,17.20
2022-08-09T04:01:56.909Z,17.20
2022-08-09T04:05:14.465Z,17.20
2022-08-09T04:08:33.805Z,17.20
2022-08-09T04:11:57.347Z,17.10
2022-08-09T04:15:11.595Z,17.10
2022-08-09T04:18:22.484Z,17.10
2022-08-09T04:21:30.238Z,17.10
2022-08-09T04:24:43.954Z,17.10
2022-08-09T04:27:49.558Z,17.10
2022-08-09T04:30:54.577Z,17.00
2022-08-09T04:34:00.995Z,17.00
2022-08-09T04:37:06.222Z,17.00
2022-08-09T04:40:18.897Z,17.00
2022-08-09T04:43:25.861Z,17.00
2022-08-09T04:46:37.898Z,17.00
2022-08-09T04:49:57.990Z,17.00
2022-08-09T04:53:05.800Z,17.00
2022-08-09T04:56:20.056Z,17.00
2022-08-09T04:59:30.842Z,17.00
2022-08-09T05:02:35.866Z,16.90
2022-08-09T05:05:52.784Z,16.90
2022-08-09T05:09:06.758Z,16.90
2022-08-09T05:12:26.962Z,16.90
2022-08-09T05:15:43.012Z,16.90
2022-08-09T05:18:58.271Z,16.90
2022-08-09T05:22:04.555Z,16.90
2022-08-09T05:25:10.578Z,16.90
2022-08-09T05:28:18.444Z,16.90
2022-08-09T05:31:37.025Z,16.90
2022-08-09T05:34:48.579Z,16.90
2022-08-09T05:37:53.898Z,16.90
2022-08-09T05:40:59.076Z,16.90
2022-08-09T05:44:07.113Z,17.00
2022-08-09T05:47:14.133Z,17.00
2022-08-09T05:50:32.252Z,17.10
2022-08-09T05:53:51.648Z,17.10
2022-08-09T05:57:02.400Z,17.20
2022-08-09T06:00:15.887Z,17.20
2022-08-09T06:03:21.070Z,17.30
2022-08-09T06:06:27.327Z,17.40
2022-08-09T06:09:54.840Z,17.50
2022-08-09T06:13:11.665Z,17.60
2022-08-09T06:16:20.286Z,17.70
2022-08-09T06:19:25.377Z,17.80
2022-08-09T06:22:35.508Z,18.00
2022-08-09T06:25:40.870Z,18.10
2022-08-09T06:28:48.547Z,18.20
2022-08-09T06:32:08.628Z,18.40
2022-08-09T06:35:15.618Z,18.50
2022-08-09T06:38:31.899Z,18.70
2022-08-09T06:42:07.613Z,18.80
2022-08-09T06:46:05.324Z,19.00
2022-08-09T06:48:42.589Z,19.20
2022-08-09T06:51:48.150Z,19.40
2022-08-09T06:54:54.377Z,19.50
2022-08-09T06:58:03.014Z,19.60
2022-08-09T07:01:09.631Z,19.80
2022-08-09T07:04:22.410Z,20.00
2022-08-09T07:07:59.949Z,20.10
2022-08-09T07:10:55.124Z,20.30
2022-08-09T07:14:05.545Z,20.40
2022-08-09T07:17:10.894Z,20.50
2022-08-09T07:20:20.622Z,20.70
2022-08-09T07:23:25.843Z,20.80
2022-08-09T07:26:35.092Z,20.90
2022-08-09T07:29:42.819Z,21.10
2022-08-09T07:32:51.448Z,21.20
2022-08-09T07:35:59.337Z,21.40
2022-08-09T07:39:11.615Z,21.50
2022-08-09T07:42:17.301Z,21.70
2022-08-09T07:45:37.860Z,21.80
2022-08-09T07:48:45.590Z,22.00
2022-08-09T07:52:04.613Z,22.10
2022-08-09T07:55:12.266Z,22.30
2022-08-09T07:58:18.471Z,22.40
2022-08-09T08:01:25.492Z,22.50
2022-08-09T08:04:48.823Z,22.70
2022-08-09T08:08:43.863Z,22.80
2022-08-09T08:12:10.226Z,22.90
2022-08-09T08:14:50.468Z,23.10
2022-08-09T08:17:58.404Z,23.30
2022-08-09T08:21:06.915Z,23.30
2022-08-09T08:24:16.617Z,23.50
2022-08-09T08:27:21.886Z,23.60
2022-08-09T08:30:32.315Z,23.70
2022-08-09T08:33:53.698Z,23.90
2022-08-09T08:37:01.378Z,24.00
2022-08-09T08:40:10.955Z,24.20
2022-08-09T08:43:17.197Z,24.30
2022-08-09T08:46:32.626Z,24.40
2022-08-09T08:49:48.622Z,24.60
2022-08-09T08:52:59.622Z,24.70
2022-08-09T08:56:08.532Z,24.90
2022-08-09T08:59:46.548Z,25.00
2022-08-09T09:02:55.346Z,25.20
2022-08-09T09:06:04.633Z,25.40
2022-08-09T09:09:41.242Z,25.50
2022-08-09T09:12:40.987Z,25.70
2022-08-09T09:15:49.143Z,25.80
2022-08-09T09:19:22.668Z,26.00
2022-08-09T09:22:28.994Z,26.10
2022-08-09T09:26:01.787Z,26.30
2022-08-09T09:29:16.851Z,26.40
2022-08-09T09:32:34.334Z,26.60
2022-08-09T09:36:00.702Z,26.70
2022-08-09T09:39:13.589Z,26.80
2022-08-09T09:42:27.818Z,26.90
2022-08-09T09:46:39.465Z,27.00
2022-08-09T09:49:31.652Z,27.10
2022-08-09T09:52:40.713Z,27.10
2022-08-09T09:56:05.130Z,27.30
2022-08-09T09:59:10.844Z,27.40
2022-08-09T10:02:26.879Z,27.40
2022-08-09T10:06:00.778Z,27.50
2022-08-09T10:09:11.798Z,27.60
2022-08-09T10:12:31.358Z,27.70
2022-08-09T10:16:55.606Z,27.80
2022-08-09T10:19:20.485Z,27.90
2022-08-09T10:22:38.174Z,28.00
2022-08-09T10:26:06.007Z,28.20
2022-08-09T10:29:32.764Z,28.30
2022-08-09T10:32:43.227Z,28.40
2022-08-09T10:35:56.188Z,28.40
2022-08-09T10:39:15.672Z,28.50
2022-08-09T10:42:27.111Z,28.60
2022-08-09T10:45:58.363Z,28.70
2022-08-09T10:49:11.653Z,28.70
2022-08-09T10:52:37.558Z,28.80
2022-08-09T10:55:57.931Z,28.90
2022-08-09T10:59:43.127Z,28.90
2022-08-09T11:03:11.445Z,29.00
2022-08-09T11:06:26.161Z,29.00
2022-08-09T11:09:59.697Z,29.00
2022-08-09T11:13:49.875Z,29.10
2022-08-09T11:16:53.514Z,29.10
2022-08-09T11:20:11.531Z,29.20
2022-08-09T11:23:29.979Z,29.30
2022-08-09T11:26:52.135Z,29.30
2022-08-09T11:30:04.303Z,29.40
2022-08-09T11:33:27.301Z,29.40
2022-08-09T11:36:44.410Z,29.50
2022-08-09T11:40:08.352Z,29.50
2022-08-09T11:43:17.768Z,29.60
2022-08-09T11:46:32.976Z,29.60
2022-08-09T11:50:56.318Z,29.70
2022-08-09T11:54:01.800Z,29.70
2022-08-09T11:56:53.578Z,29.70
2022-08-09T12:00:12.726Z,29.70
2022-08-09T12:03:55.290Z,29.80
2022-08-09T12:06:55.949Z,29.80
2022-08-09T12:10:02.951Z,29.80
2022-08-09T12:14:10.161Z,29.80
2022-08-09T12:16:40.270Z,29.80
2022-08-09T12:19:45.445Z,29.80
2022-08-09T12:22:58.473Z,29.80
2022-08-09T12:26:03.776Z,29.80
2022-08-09T12:29:14.243Z,29.90
2022-08-09T12:32:36.823Z,29.90
2022-08-09T12:35:47.892Z,29.90
2022-08-09T12:38:57.434Z,30.00
2022-08-09T12:42:10.425Z,30.00
2022-08-09T12:45:34.507Z,30.00
2022-08-09T12:48:46.679Z,30.00
2022-08-09T12:52:03.665Z,30.00
2022-08-09T12:56:12.544Z,29.90
2022-08-09T12:58:42.484Z,29.90
2022-08-09T13:01:50.981Z,30.00
2022-08-09T13:05:05.337Z,30.00
2022-08-09T13:08:15.529Z,29.90
2022-08-09T13:11:31.753Z,29.90
2022-08-09T13:14:45.487Z,29.90
2022-08-09T13:18:05.230Z,29.90
2022-08-09T13:23:00.419Z,29.90
2022-08-09T13:25:03.654Z,29.90
2022-08-09T13:28:19.030Z,30.00
2022-08-09T13:32:15.155Z,29.90
2022-08-09T13:35:25.751Z,29.90
2022-08-09T13:38:55.510Z,29.90
2022-08-09T13:42:04.797Z,29.90
2022-08-09T13:45:13.056Z,29.90
2022-08-09T13:48:18.135Z,29.90
2022-08-09T13:51:23.216Z,29.90
2022-08-09T13:54:35.021Z,29.90
2022-08-09T13:57:42.710Z,29.90
2022-08-09T14:00:52.652Z,29.90
2022-08-09T14:03:58.323Z,29.90
2022-08-09T14:07:07.913Z,29.90
2022-08-09T14:10:46.277Z,29.90
2022-08-09T14:14:24.316Z,29.90
2022-08-09T14:17:12.547Z,29.90
2022-08-09T14:20:17.682Z,29.90
2022-08-09T14:23:53.974Z,29.80
2022-08-09T14:26:51.991Z,29.80
2022-08-09T14:30:35.621Z,29.80
2022-08-09T14:33:23.606Z,29.80
2022-08-09T14:36:35.343Z,29.80
2022-08-09T14:39:48.730Z,29.80
2022-08-09T14:42:56.457Z,29.80
2022-08-09T14:46:57.306Z,29.80
2022-08-09T14:49:27.776Z,29.70
2022-08-09T14:52:39.794Z,29.70
2022-08-09T14:55:49.915Z,29.60
2022-08-09T14:58:58.155Z,29.60
2022-08-09T15:02:03.229Z,29.60
2022-08-09T15:05:11.595Z,29.60
2022-08-09T15:08:20.308Z,29.50
2022-08-09T15:11:29.208Z,29.50
2022-08-09T15:14:38.774Z,29.40
2022-08-09T15:17:46.238Z,29.30
2022-08-09T15:21:55.327Z,29.30
2022-08-09T15:24:26.601Z,29.30
2022-08-09T15:27:47.653Z,29.20
2022-08-09T15:31:10.200Z,29.20
2022-08-09T15:34:33.506Z,29.10
2022-08-09T15:37:57.133Z,29.00
2022-08-09T15:41:09.625Z,29.00
2022-08-09T15:44:15.050Z,28.90
2022-08-09T15:47:32.826Z,28.90
2022-08-09T15:50:52.400Z,28.80
2022-08-09T15:54:07.950Z,28.80
2022-08-09T15:57:18.932Z,28.70
2022-08-09T16:00:40.253Z,28.60
2022-08-09T16:03:50.129Z,28.60
2022-08-09T16:06:56.195Z,28.60
2022-08-09T16:10:04.154Z,28.50
2022-08-09T16:13:20.813Z,28.50
2022-08-09T16:16:42.065Z,28.50
2022-08-09T16:20:04.842Z,28.40
2022-08-09T16:23:19.993Z,28.40
2022-08-09T16:26:33.891Z,28.30
2022-08-09T16:29:49.765Z,28.30
2022-08-09T16:33:08.308Z,28.20
2022-08-09T16:36:18.739Z,28.20
2022-08-09T16:39:25.954Z,28.10
2022-08-09T16:42:31.312Z,28.00
2022-08-09T16:45:41.649Z,28.00
2022-08-09T16:48:55.927Z,27.90
2022-08-09T16:52:10.081Z,27.90
2022-08-09T16:55:18.184Z,27.90
2022-08-09T16:58:23.333Z,27.80
2022-08-09T17:01:28.828Z,27.80
2022-08-09T17:04:39.121Z,27.70
2022-08-09T17:08:43.522Z,27.60
2022-08-09T17:11:11.978Z,27.60
2022-08-09T17:14:27.646Z,27.50
2022-08-09T17:17:51.160Z,27.40
2022-08-09T17:20:56.767Z,27.30
2022-08-09T17:24:26.991Z,27.20
2022-08-09T17:27:29.419Z,27.20
2022-08-09T17:30:34.979Z,27.10
2022-08-09T17:33:39.997Z,27.00
2022-08-09T17:36:53.438Z,26.90
2022-08-09T17:40:01.548Z,26.90
2022-08-09T17:43:32.111Z,26.80
2022-08-09T17:46:34.012Z,26.70
2022-08-09T17:49:51.263Z,26.60
2022-08-09T17:53:02.266Z,26.60
2022-08-09T17:56:12.698Z,26.50
2022-08-09T17:59:17.874Z,26.50
2022-08-09T18:02:27.919Z,26.40
2022-08-09T18:05:43.727Z,26.40
2022-08-09T18:08:49.260Z,26.30
2022-08-09T18:12:14.543Z,26.30
2022-08-09T18:15:20.774Z,26.20
2022-08-09T18:18:49.088Z,26.20
2022-08-09T18:21:54.585Z,26.10
2022-08-09T18:24:59.536Z,26.00
2022-08-09T18:28:21.575Z,26.00
2022-08-09T18:31:55.370Z,25.90
2022-08-09T18:34:57.913Z,25.90
2022-08-09T18:38:04.442Z,25.80
2022-08-09T18:41:10.622Z,25.70
2022-08-09T18:44:27.393Z,25.70
2022-08-09T18:47:37.623Z,25.60
2022-08-09T18:50:42.940Z,25.50
2022-08-09T18:53:59.746Z,25.50
2022-08-09T18:57:06.995Z,25.50
2022-08-09T19:00:20.191Z,25.40
2022-08-09T19:03:25.783Z,25.30
2022-08-09T19:06:33.910Z,25.30
2022-08-09T19:10:14.074Z,25.20
2022-08-09T19:13:20.114Z,25.10
2022-08-09T19:16:36.410Z,25.10
2022-08-09T19:19:42.693Z,25.00
2022-08-09T19:22:53.918Z,24.90
2022-08-09T19:26:05.218Z,24.80
2022-08-09T19:29:18.080Z,24.70
2022-08-09T19:32:31.922Z,24.60
2022-08-09T19:35:57.529Z,24.50
2022-08-09T19:39:05.654Z,24.40
2022-08-09T19:42:15.154Z,24.30
2022-08-09T19:45:24.575Z,24.20
2022-08-09T19:49:01.938Z,24.10
2022-08-09T19:52:10.141Z,24.10
2022-08-09T19:55:19.353Z,24.00
2022-08-09T19:58:30.200Z,23.90
2022-08-09T20:01:52.546Z,23.90
2022-08-09T20:05:05.529Z,23.80
2022-08-09T20:08:16.227Z,23.70
2022-08-09T20:11:45.266Z,23.60
2022-08-09T20:14:57.179Z,23.60
2022-08-09T20:18:02.329Z,23.50
2022-08-09T20:21:12.011Z,23.50
2022-08-09T20:24:31.685Z,23.40
2022-08-09T20:27:43.183Z,23.40
2022-08-09T20:30:51.683Z,23.30
2022-08-09T20:33:58.536Z,23.20
2022-08-09T20:37:12.960Z,23.20
2022-08-09T20:40:27.038Z,23.10
2022-08-09T20:43:32.956Z,23.00
2022-08-09T20:46:44.466Z,22.90
2022-08-09T20:49:50.158Z,22.80
2022-08-09T20:52:58.668Z,22.80
2022-08-09T20:56:04.918Z,22.70
2022-08-09T20:59:10.091Z,22.60
2022-08-09T21:02:17.446Z,22.50
2022-08-09T21:05:53.956Z,22.50
2022-08-09T21:08:51.891Z,22.40
2022-08-09T21:15:12.957Z,22.30
2022-08-09T21:18:25.912Z,22.20
2022-08-09T21:21:52.825Z,22.20
2022-08-09T21:25:12.499Z,22.10
2022-08-09T21:28:19.013Z,22.00
2022-08-09T21:31:48.963Z,22.00
2022-08-09T21:34:55.163Z,21.90
2022-08-09T21:38:03.337Z,21.80
2022-08-09T21:41:11.318Z,21.70
2022-08-09T21:44:33.852Z,21.70
2022-08-09T21:47:43.492Z,21.60
2022-08-09T21:50:51.324Z,21.50
2022-08-09T21:53:57.083Z,21.50
2022-08-09T21:57:04.807Z,21.40
2022-08-09T22:00:25.677Z,21.40
2022-08-09T22:03:31.771Z,21.30
2022-08-09T22:06:36.933Z,21.20
2022-08-09T22:09:43.832Z,21.10
2022-08-09T22:12:52.363Z,21.10
2022-08-09T22:15:57.425Z,21.00
2022-08-09T22:19:02.910Z,21.00
2022-08-09T22:22:28.207Z,20.90
2022-08-09T22:26:05.282Z,20.80
2022-08-09T22:29:00.961Z,20.80
2022-08-09T22:32:29.338Z,20.70
2022-08-09T22:36:02.182Z,20.70
2022-08-09T22:39:04.776Z,20.60
2022-08-09T22:42:16.333Z,20.60
2022-08-09T22:48:13.474Z,20.50
2022-08-09T22:48:56.182Z,20.50
2022-08-09T22:52:07.499Z,20.40
2022-08-09T22:55:21.948Z,20.40
2022-08-09T22:58:32.391Z,20.40
2022-08-09T23:01:41.567Z,20.30
2022-08-09T23:04:53.892Z,20.30
2022-08-09T23:08:23.392Z,20.20
2022-08-09T23:11:35.144Z,20.20
2022-08-09T23:14:42.432Z,20.10
2022-08-09T23:17:50.778Z,20.10
2022-08-09T23:20:58.718Z,20.00
2022-08-09T23:24:05.936Z,20.00
2022-08-09T23:27:12.306Z,20.00
2022-08-09T23:30:17.481Z,19.90
2022-08-09T23:33:26.484Z,19.90
2022-08-09T23:36:31.716Z,19.90
2022-08-09T23:39:36.879Z,19.80
2022-08-09T23:42:41.944Z,19.80
2022-08-09T23:45:47.201Z,19.80
2022-08-09T23:48:54.818Z,19.80
2022-08-09T23:51:59.826Z,19.70
2022-08-09T23:55:04.862Z,19.70
2022-08-09T23:58:24.190Z,19.70
